Houston, Texas
Traffic Map
Current Weather Conditions
Houston, Texas
Clear
Clear
12°
Feels Like: 12°
Wind Chill: 12° Ceiling: Unl
Heat Index: 12° Visibility: 10mi
Dew Point: Wind: 9mph
Humidity: 54% Direction: 200° (SSW)
Pressure: 30.2in Gusts: 18mph
Raw Report DataKMCJ 260615Z AUTO 20008G16KT 020V030 10SM CLR 12/03 A3020 RMK AO1
Traffic Incident Summary
Active as of:
Severity:
Category:
InformationThere was an issue retrieving the traffic information for this location. Please try a different location or try again shortly.
Advertisements
Track Severe Weather on mobile